Time;durP1;ratioP1;P1;durP2;ratioP2;P2;SDS_P1;SDS_P2;PMS_P1;PMS_P2;Temp;Humidity;BMP_temperature;BMP_pressure;BME280_temperature;BME280_humidity;BME280_pressure;Samples;Min_cycle;Max_cycle;Signal;HPM_P1;HPM_P2
2021/09/13 00:01:40;;;;;;;11.07;8.77;;;15.70;99.90;;;;;;5063874;28;20712;-89
2021/09/13 00:04:07;;;;;;;9.57;8.57;;;15.70;99.90;;;;;;5071965;28;20210;-89
2021/09/13 00:06:36;;;;;;;10.57;9.40;;;15.70;99.90;;;;;;5073651;28;20676;-89
2021/09/13 00:09:03;;;;;;;9.50;8.60;;;15.70;99.90;;;;;;5076761;28;20223;-89
2021/09/13 00:11:30;;;;;;;10.23;9.15;;;15.70;99.90;;;;;;5082729;28;20236;-91
2021/09/13 00:13:57;;;;;;;9.73;8.80;;;15.70;99.90;;;;;;5075952;28;20197;-90
2021/09/13 00:16:26;;;;;;;10.68;9.18;;;15.80;99.90;;;;;;5066225;28;20230;-90
2021/09/13 00:18:53;;;;;;;10.75;8.85;;;16.00;99.90;;;;;;5054996;28;20205;-89
2021/09/13 00:21:20;;;;;;;9.60;8.60;;;16.00;99.90;;;;;;5052007;28;20229;-89
2021/09/13 00:23:48;;;;;;;9.63;8.68;;;16.00;99.90;;;;;;5054045;28;20617;-89
2021/09/13 00:26:15;;;;;;;10.55;9.45;;;16.00;99.90;;;;;;5073860;28;20194;-89
2021/09/13 00:28:42;;;;;;;10.05;9.05;;;15.90;99.90;;;;;;5083695;28;20304;-90
2021/09/13 00:31:09;;;;;;;9.93;8.88;;;15.90;99.90;;;;;;5077422;28;20264;-90
2021/09/13 00:33:37;;;;;;;9.68;8.77;;;16.10;99.90;;;;;;5070703;28;20237;-90
2021/09/13 00:36:06;;;;;;;9.43;8.52;;;16.10;99.90;;;;;;5083787;28;20196;-90
2021/09/13 00:38:33;;;;;;;10.02;9.10;;;16.10;99.90;;;;;;5074505;28;20205;-91
2021/09/13 00:41:00;;;;;;;13.10;9.00;;;16.10;99.90;;;;;;5079187;28;20300;-90
2021/09/13 00:43:28;;;;;;;9.35;8.45;;;16.10;99.90;;;;;;5059299;28;20262;-90
2021/09/13 00:45:55;;;;;;;9.57;8.68;;;16.30;99.90;;;;;;5050105;28;20569;-91
2021/09/13 00:48:22;;;;;;;8.73;7.90;;;16.40;99.90;;;;;;5078496;28;20244;-90
2021/09/13 00:50:52;;;;;;;9.35;8.52;;;16.50;99.90;;;;;;5058807;28;20211;-89
2021/09/13 00:53:20;;;;;;;9.27;8.13;;;16.60;99.90;;;;;;5071501;28;20229;-89
2021/09/13 00:55:47;;;;;;;9.07;8.27;;;16.60;99.90;;;;;;5065199;28;20728;-91
2021/09/13 00:58:14;;;;;;;9.18;8.30;;;16.70;99.90;;;;;;5074295;28;20241;-89
2021/09/13 01:00:42;;;;;;;9.57;8.50;;;16.60;99.90;;;;;;5058647;28;20289;-90
2021/09/13 01:03:09;;;;;;;8.75;7.55;;;16.50;99.90;;;;;;5051847;28;20308;-90
2021/09/13 01:05:36;;;;;;;9.57;8.25;;;16.50;99.90;;;;;;5063561;28;20198;-89
2021/09/13 01:08:05;;;;;;;9.13;8.23;;;16.50;99.90;;;;;;5073424;28;20221;-90
2021/09/13 01:10:33;;;;;;;9.55;8.35;;;16.50;99.90;;;;;;5068314;28;20197;-89
2021/09/13 01:13:00;;;;;;;8.90;8.07;;;16.30;99.90;;;;;;5073047;28;20308;-90
2021/09/13 01:15:27;;;;;;;8.85;7.95;;;16.30;99.90;;;;;;5077165;28;20228;-90
2021/09/13 01:17:54;;;;;;;8.48;7.68;;;16.40;99.90;;;;;;5079509;28;20217;-92
2021/09/13 01:20:22;;;;;;;8.70;7.70;;;16.40;99.90;;;;;;5081179;28;20364;-89
2021/09/13 01:22:54;;;;;;;8.52;7.72;;;16.50;99.90;;;;;;5062473;28;20244;-89
2021/09/13 01:25:23;;;;;;;9.50;8.00;;;16.50;99.90;;;;;;5067455;28;20198;-90
2021/09/13 01:27:50;;;;;;;9.93;8.10;;;16.50;99.90;;;;;;5071322;28;20684;-89
2021/09/13 01:30:17;;;;;;;9.63;8.27;;;16.50;99.90;;;;;;5065302;28;20200;-89
2021/09/13 01:32:44;;;;;;;8.73;7.85;;;16.40;99.80;;;;;;5088926;28;20639;-91
2021/09/13 01:35:12;;;;;;;8.52;7.68;;;16.40;99.90;;;;;;5069021;28;20284;-89
2021/09/13 01:37:39;;;;;;;8.95;7.30;;;16.30;99.80;;;;;;5075568;28;20239;-90
2021/09/13 01:40:08;;;;;;;7.95;7.18;;;16.30;99.90;;;;;;5065862;28;20215;-89
2021/09/13 01:42:37;;;;;;;8.00;7.20;;;16.20;99.90;;;;;;5075306;28;20312;-90
2021/09/13 01:45:04;;;;;;;8.63;7.43;;;16.20;99.90;;;;;;5072286;28;20201;-89
2021/09/13 01:47:32;;;;;;;8.82;7.30;;;16.10;99.90;;;;;;5072523;28;20216;-91
2021/09/13 01:49:59;;;;;;;8.02;7.30;;;16.00;99.90;;;;;;5064339;28;20198;-90
2021/09/13 01:52:26;;;;;;;8.95;6.70;;;15.80;99.90;;;;;;5073125;28;20228;-89
2021/09/13 01:54:53;;;;;;;8.45;7.65;;;15.70;99.90;;;;;;5067651;28;20198;-90
2021/09/13 01:57:20;;;;;;;8.35;7.20;;;15.60;99.90;;;;;;5049702;28;20235;-90
2021/09/13 01:59:51;;;;;;;9.25;7.80;;;15.40;99.90;;;;;;5048951;28;20272;-89
2021/09/13 02:02:18;;;;;;;9.20;7.82;;;15.40;99.90;;;;;;5038484;28;20225;-90
2021/09/13 02:04:45;;;;;;;9.77;7.10;;;15.40;99.90;;;;;;5058200;28;20208;-89
2021/09/13 02:07:12;;;;;;;7.68;6.95;;;15.50;99.90;;;;;;5052563;28;20224;-91
2021/09/13 02:09:39;;;;;;;8.88;7.65;;;15.60;99.90;;;;;;5080201;28;20302;-90
2021/09/13 02:12:07;;;;;;;7.90;7.10;;;15.40;99.90;;;;;;5069562;28;20786;-89
2021/09/13 02:14:34;;;;;;;7.57;6.75;;;15.30;99.90;;;;;;5080481;28;20276;-90
2021/09/13 02:17:04;;;;;;;8.25;6.50;;;15.40;99.90;;;;;;5071423;28;20316;-88
2021/09/13 02:19:31;;;;;;;8.02;6.72;;;15.30;99.90;;;;;;5073456;28;20198;-89
2021/09/13 02:21:58;;;;;;;7.55;6.85;;;15.30;99.90;;;;;;5073152;28;20307;-89
2021/09/13 02:24:25;;;;;;;9.10;6.85;;;15.30;99.90;;;;;;5075443;28;20202;-89
2021/09/13 02:26:52;;;;;;;8.02;6.38;;;15.20;99.90;;;;;;5072264;28;20566;-89
2021/09/13 02:29:19;;;;;;;7.35;6.65;;;15.10;99.90;;;;;;5067316;28;20311;-89
2021/09/13 02:31:46;;;;;;;8.32;7.32;;;15.00;99.90;;;;;;5075683;28;20220;-90
2021/09/13 02:34:15;;;;;;;7.40;6.70;;;14.90;99.90;;;;;;5078928;28;20300;-89
2021/09/13 02:36:42;;;;;;;6.95;6.35;;;15.00;99.90;;;;;;5073546;28;20767;-89
2021/09/13 02:39:11;;;;;;;7.10;6.40;;;14.90;99.90;;;;;;5092138;28;20211;-89
2021/09/13 02:41:38;;;;;;;8.45;7.55;;;14.90;99.90;;;;;;5074055;28;20256;-89
2021/09/13 02:44:06;;;;;;;7.10;6.45;;;14.80;99.90;;;;;;5072280;28;20201;-89
2021/09/13 02:46:33;;;;;;;7.22;6.40;;;14.90;99.90;;;;;;5080037;28;20593;-89
2021/09/13 02:49:00;;;;;;;9.07;6.75;;;15.10;99.90;;;;;;5045690;28;20229;-90
2021/09/13 02:51:31;;;;;;;11.40;6.50;;;15.10;99.90;;;;;;5068742;28;20229;-89
2021/09/13 02:53:58;;;;;;;8.50;6.30;;;15.10;99.90;;;;;;5049041;28;20214;-89
2021/09/13 02:56:25;;;;;;;6.82;6.13;;;15.20;99.90;;;;;;5082979;28;20226;-90
2021/09/13 02:58:52;;;;;;;7.75;6.18;;;15.10;99.90;;;;;;5076302;28;20290;-87
2021/09/13 03:01:19;;;;;;;7.45;6.15;;;15.10;99.90;;;;;;5068471;28;20316;-88
2021/09/13 03:03:46;;;;;;;7.13;6.43;;;15.00;99.90;;;;;;5071696;28;20198;-89
2021/09/13 03:06:13;;;;;;;7.35;6.65;;;15.00;99.90;;;;;;5050841;28;20202;-89
2021/09/13 03:08:42;;;;;;;8.52;6.22;;;15.00;99.90;;;;;;5054903;28;20324;-89
2021/09/13 03:11:09;;;;;;;8.30;5.85;;;14.80;99.90;;;;;;5070269;28;20203;-88
2021/09/13 03:13:36;;;;;;;6.55;5.70;;;14.70;99.90;;;;;;5088736;28;20204;-88
2021/09/13 03:16:04;;;;;;;6.18;5.68;;;14.70;99.90;;;;;;5071806;28;20742;-88
2021/09/13 03:18:31;;;;;;;7.22;5.70;;;14.70;99.90;;;;;;5080634;28;20231;-89
2021/09/13 03:20:58;;;;;;;6.50;5.57;;;14.70;99.90;;;;;;5079893;28;20197;-88
2021/09/13 03:23:25;;;;;;;6.35;5.60;;;14.60;99.90;;;;;;5067264;28;20638;-87
2021/09/13 03:25:53;;;;;;;6.97;6.28;;;14.40;99.90;;;;;;5075449;28;20292;-88
2021/09/13 03:28:20;;;;;;;7.88;5.90;;;14.50;99.90;;;;;;5047796;28;20260;-88
2021/09/13 03:30:48;;;;;;;6.70;6.10;;;14.60;99.90;;;;;;5048613;28;20239;-89
2021/09/13 03:33:15;;;;;;;7.20;5.68;;;14.50;99.90;;;;;;5049917;28;20235;-88
2021/09/13 03:35:42;;;;;;;6.63;5.78;;;14.40;99.90;;;;;;5070802;28;20194;-88
2021/09/13 03:38:09;;;;;;;9.70;6.72;;;14.30;99.90;;;;;;5045181;28;20604;-88
2021/09/13 03:40:37;;;;;;;6.70;5.97;;;14.30;99.90;;;;;;5077729;28;20201;-89
2021/09/13 03:43:05;;;;;;;6.63;5.93;;;14.40;99.90;;;;;;5065514;28;20228;-88
2021/09/13 03:45:34;;;;;;;7.35;6.60;;;14.40;99.90;;;;;;5057161;28;20264;-88
2021/09/13 03:48:01;;;;;;;7.05;6.38;;;14.30;99.90;;;;;;5069442;28;20299;-87
2021/09/13 03:50:28;;;;;;;7.35;6.75;;;14.30;99.90;;;;;;5070771;28;20660;-88
2021/09/13 03:52:55;;;;;;;10.93;6.72;;;14.30;99.90;;;;;;5067913;28;20226;-88
2021/09/13 03:55:23;;;;;;;8.13;7.35;;;14.10;99.90;;;;;;5068234;28;20194;-88
2021/09/13 03:57:50;;;;;;;8.35;7.32;;;14.10;99.90;;;;;;5054895;28;20227;-88
2021/09/13 04:00:19;;;;;;;8.07;7.30;;;14.10;99.90;;;;;;5052855;28;20188;-88
2021/09/13 04:02:48;;;;;;;8.00;7.15;;;14.10;99.90;;;;;;5055293;28;20225;-88
2021/09/13 04:05:19;;;;;;;8.15;7.35;;;14.10;99.90;;;;;;5070726;28;20201;-89
2021/09/13 04:08:04;;;;;;;9.02;7.85;;;14.00;99.90;;;;;;5071257;28;20310;-89
2021/09/13 04:10:35;;;;;;;8.10;7.35;;;14.10;99.90;;;;;;5054089;28;20189;-88
2021/09/13 04:13:03;;;;;;;8.25;7.45;;;14.20;99.90;;;;;;5054118;28;20767;-89
2021/09/13 04:15:31;;;;;;;8.38;6.70;;;14.20;99.90;;;;;;5064300;28;20202;-88
2021/09/13 04:18:02;;;;;;;8.00;7.20;;;14.30;99.90;;;;;;5070608;28;20231;-88
2021/09/13 04:20:29;;;;;;;7.80;7.10;;;14.30;99.90;;;;;;5058984;28;20199;-88
2021/09/13 04:22:56;;;;;;;8.20;7.32;;;14.40;99.90;;;;;;5078914;28;20227;-89
2021/09/13 04:25:24;;;;;;;8.43;7.50;;;14.30;99.90;;;;;;5059445;28;20264;-90
2021/09/13 04:27:52;;;;;;;7.60;6.90;;;14.20;99.90;;;;;;5055301;28;20232;-87
2021/09/13 04:30:20;;;;;;;9.98;7.50;;;14.10;99.90;;;;;;5066934;28;20248;-87
2021/09/13 04:32:48;;;;;;;9.32;7.57;;;14.20;99.90;;;;;;5081292;28;20224;-88
2021/09/13 04:35:16;;;;;;;11.07;7.97;;;14.00;99.90;;;;;;5067185;28;20193;-87
2021/09/13 04:37:43;;;;;;;9.10;7.47;;;13.90;99.90;;;;;;5056173;28;20782;-87
2021/09/13 04:40:13;;;;;;;13.93;8.98;;;14.00;99.90;;;;;;5051495;28;20280;-88
2021/09/13 04:42:40;;;;;;;14.80;8.95;;;14.10;99.90;;;;;;5056194;28;20227;-89
2021/09/13 04:45:08;;;;;;;13.00;9.30;;;14.20;99.90;;;;;;5062903;28;20205;-88
2021/09/13 04:47:35;;;;;;;7.70;6.95;;;14.20;99.90;;;;;;5083798;28;20299;-88
2021/09/13 04:50:05;;;;;;;12.93;9.15;;;14.10;99.90;;;;;;5074352;28;20252;-88
2021/09/13 04:52:32;;;;;;;12.27;9.27;;;14.10;99.90;;;;;;5067890;28;20225;-88
2021/09/13 04:54:59;;;;;;;9.43;8.13;;;14.20;99.90;;;;;;5071233;28;20568;-88
2021/09/13 04:57:26;;;;;;;8.98;7.65;;;14.30;99.90;;;;;;5071458;28;20223;-87
2021/09/13 04:59:53;;;;;;;8.98;7.97;;;14.10;99.90;;;;;;5064966;28;20790;-92
2021/09/13 05:02:20;;;;;;;11.13;8.05;;;14.00;99.90;;;;;;5066645;28;20289;-88
2021/09/13 05:04:47;;;;;;;18.45;10.65;;;14.10;99.90;;;;;;5078292;28;20292;-88
2021/09/13 05:07:16;;;;;;;13.15;9.15;;;14.30;99.90;;;;;;5030339;28;20214;-89
2021/09/13 05:09:43;;;;;;;12.93;9.02;;;14.30;99.90;;;;;;5064744;28;20228;-87
2021/09/13 05:12:10;;;;;;;12.27;9.40;;;14.40;99.90;;;;;;5061222;28;20217;-92
2021/09/13 05:14:37;;;;;;;12.73;8.35;;;14.30;99.90;;;;;;5068995;28;20665;-87
2021/09/13 05:17:05;;;;;;;10.55;7.97;;;14.30;99.90;;;;;;5059424;28;20751;-88
2021/09/13 05:19:32;;;;;;;15.35;9.52;;;14.20;99.90;;;;;;5075188;28;20608;-89
2021/09/13 05:21:59;;;;;;;19.45;10.30;;;14.20;99.90;;;;;;5083252;28;20228;-88
2021/09/13 05:24:28;;;;;;;12.50;8.90;;;14.30;99.90;;;;;;5078739;28;20197;-88
2021/09/13 05:26:55;;;;;;;10.73;8.40;;;14.40;99.90;;;;;;5052428;28;20239;-88
2021/09/13 05:29:23;;;;;;;11.77;8.75;;;14.40;99.90;;;;;;5035823;28;20218;-88
2021/09/13 05:31:50;;;;;;;8.73;7.45;;;14.50;99.90;;;;;;5034572;28;20595;-88
2021/09/13 05:34:17;;;;;;;8.00;7.20;;;14.40;99.90;;;;;;5084193;28;20727;-90
2021/09/13 05:36:44;;;;;;;7.80;7.07;;;14.30;99.90;;;;;;5059207;28;20225;-89
2021/09/13 05:39:12;;;;;;;8.35;7.55;;;14.20;99.90;;;;;;5063056;28;20193;-89
2021/09/13 05:41:41;;;;;;;11.15;7.93;;;14.20;99.90;;;;;;5061615;28;20231;-92
2021/09/13 05:44:08;;;;;;;9.63;7.63;;;14.20;99.90;;;;;;5078747;28;20267;-89
2021/09/13 05:46:37;;;;;;;8.80;7.47;;;14.20;99.90;;;;;;5079648;28;20281;-89
2021/09/13 05:49:09;;;;;;;11.20;7.72;;;14.30;99.90;;;;;;5058417;28;20232;-89
2021/09/13 05:51:38;;;;;;;9.93;8.25;;;14.30;99.90;;;;;;5068594;28;20221;-89
2021/09/13 05:54:05;;;;;;;11.20;9.07;;;14.30;99.90;;;;;;5079031;28;20201;-89
2021/09/13 05:56:32;;;;;;;10.50;8.93;;;14.50;99.90;;;;;;5077670;28;20688;-90
2021/09/13 05:59:01;;;;;;;8.00;7.20;;;14.60;99.90;;;;;;5077258;28;20212;-91
2021/09/13 06:01:28;;;;;;;11.23;7.93;;;14.70;99.90;;;;;;5054538;28;20733;-88
2021/09/13 06:03:55;;;;;;;11.55;7.68;;;14.90;99.90;;;;;;5067977;28;20288;-89
2021/09/13 06:06:22;;;;;;;9.88;8.32;;;15.00;99.90;;;;;;5055016;28;20225;-88
2021/09/13 06:08:49;;;;;;;8.70;7.85;;;15.20;99.90;;;;;;5065621;28;20203;-88
2021/09/13 06:11:17;;;;;;;14.05;8.00;;;15.30;99.60;;;;;;5060321;28;20203;-88
2021/09/13 06:13:44;;;;;;;11.60;7.97;;;15.40;99.60;;;;;;5067719;28;20196;-89
2021/09/13 06:16:12;;;;;;;9.73;8.15;;;15.40;99.60;;;;;;5042483;28;20449;-87
2021/09/13 06:18:39;;;;;;;10.48;8.20;;;15.40;99.50;;;;;;5065070;28;20190;-87
2021/09/13 06:21:06;;;;;;;7.93;7.13;;;15.60;99.40;;;;;;5072717;28;20194;-88
2021/09/13 06:23:33;;;;;;;11.27;8.18;;;15.70;99.20;;;;;;5064408;28;20731;-88
2021/09/13 06:26:00;;;;;;;9.68;8.45;;;15.70;99.10;;;;;;5072441;28;20198;-87
2021/09/13 06:28:27;;;;;;;10.55;8.05;;;15.80;99.00;;;;;;5039254;28;20732;-88
2021/09/13 06:30:54;;;;;;;10.25;8.77;;;15.90;99.00;;;;;;5059027;28;20221;-87
2021/09/13 06:35:58;;;;;;;15.15;9.85;;;16.00;98.80;;;;;;5936598;22;20203;-86
2021/09/13 06:38:25;;;;;;;14.18;10.07;;;16.10;98.60;;;;;;5066596;28;20224;-87
2021/09/13 06:40:53;;;;;;;10.90;8.93;;;16.20;98.60;;;;;;5081107;28;20204;-86
2021/09/13 06:43:20;;;;;;;13.43;9.50;;;16.30;98.20;;;;;;5071849;28;20247;-84
2021/09/13 06:45:47;;;;;;;13.00;9.15;;;16.50;97.70;;;;;;5077174;28;20204;-84
2021/09/13 06:48:16;;;;;;;16.30;9.40;;;16.70;97.30;;;;;;5073567;28;20226;-87
2021/09/13 06:50:44;;;;;;;14.27;8.93;;;16.80;97.30;;;;;;5069208;28;20232;-86
2021/09/13 06:53:15;;;;;;;13.77;9.27;;;16.90;97.40;;;;;;5062955;28;20243;-83
2021/09/13 06:55:42;;;;;;;13.88;9.05;;;16.90;97.40;;;;;;5083225;28;20186;-84
2021/09/13 06:58:10;;;;;;;11.43;9.15;;;17.00;97.40;;;;;;5093651;28;20231;-84
2021/09/13 07:00:39;;;;;;;11.30;9.13;;;17.10;97.00;;;;;;5074616;28;20200;-84
2021/09/13 07:03:07;;;;;;;10.02;8.98;;;17.30;96.60;;;;;;5073716;28;20229;-87
2021/09/13 07:05:34;;;;;;;10.15;8.35;;;17.30;96.40;;;;;;5067086;28;20204;-87
2021/09/13 07:08:14;;;;;;;10.00;7.65;;;17.40;96.00;;;;;;5068308;28;20222;-85
2021/09/13 07:10:41;;;;;;;9.07;8.18;;;17.50;96.10;;;;;;5070742;28;20308;-84
2021/09/13 07:13:08;;;;;;;8.57;7.78;;;17.60;96.00;;;;;;5071186;28;20213;-87
2021/09/13 07:15:35;;;;;;;9.68;8.63;;;17.70;95.70;;;;;;5072612;28;20205;-88
2021/09/13 07:18:02;;;;;;;9.40;8.45;;;17.70;95.20;;;;;;5068294;28;20270;-84
2021/09/13 07:20:29;;;;;;;12.05;8.77;;;17.70;94.90;;;;;;5072237;28;20212;-83
2021/09/13 07:22:56;;;;;;;10.25;8.82;;;17.70;94.30;;;;;;5073035;28;20723;-87
2021/09/13 07:25:25;;;;;;;9.65;8.70;;;17.60;94.80;;;;;;5065859;28;20212;-89
2021/09/13 07:27:55;;;;;;;9.38;8.27;;;17.70;94.90;;;;;;5071726;28;20838;-86
2021/09/13 07:30:22;;;;;;;7.88;7.07;;;17.80;94.90;;;;;;5055006;28;20255;-87
2021/09/13 07:32:50;;;;;;;8.48;7.60;;;17.90;95.00;;;;;;5068953;28;20249;-87
2021/09/13 07:35:17;;;;;;;11.45;8.23;;;18.00;95.10;;;;;;5051706;28;20236;-87
2021/09/13 07:37:44;;;;;;;9.75;8.00;;;18.10;94.60;;;;;;5068976;28;20239;-89
2021/09/13 07:40:13;;;;;;;8.30;7.50;;;18.20;93.70;;;;;;5071627;28;20298;-87
2021/09/13 07:42:43;;;;;;;11.52;8.00;;;18.30;93.90;;;;;;5056704;28;20325;-89
2021/09/13 07:45:11;;;;;;;8.50;7.70;;;18.30;93.50;;;;;;5074577;28;20198;-87
2021/09/13 07:47:38;;;;;;;8.38;7.55;;;18.40;93.50;;;;;;5069128;28;20238;-89
2021/09/13 07:50:07;;;;;;;8.00;7.10;;;18.50;93.30;;;;;;5069939;28;20794;-88
2021/09/13 07:52:34;;;;;;;9.25;6.88;;;18.40;92.30;;;;;;5070299;28;20302;-89
2021/09/13 07:55:03;;;;;;;7.07;6.38;;;18.50;92.30;;;;;;5067707;28;20197;-87
2021/09/13 07:57:30;;;;;;;7.82;7.07;;;18.60;92.80;;;;;;5070118;28;20235;-86
2021/09/13 07:59:59;;;;;;;7.63;6.93;;;18.60;92.30;;;;;;5075825;28;20231;-83
2021/09/13 08:02:26;;;;;;;7.80;7.03;;;18.70;92.00;;;;;;5085245;28;20220;-88
2021/09/13 08:04:54;;;;;;;7.47;6.72;;;18.70;90.80;;;;;;5067635;28;20201;-88
2021/09/13 08:07:22;;;;;;;7.25;6.65;;;18.80;90.90;;;;;;5074804;28;20220;-87
2021/09/13 08:09:49;;;;;;;9.48;7.15;;;18.80;90.80;;;;;;5069763;28;20221;-88
2021/09/13 08:12:17;;;;;;;7.35;6.55;;;18.90;90.60;;;;;;5067663;28;20319;-88
2021/09/13 08:14:46;;;;;;;7.47;6.78;;;19.00;90.50;;;;;;5081101;28;20256;-91
2021/09/13 08:17:15;;;;;;;8.27;6.38;;;18.90;90.20;;;;;;5049600;28;20222;-88
2021/09/13 08:19:44;;;;;;;8.63;6.60;;;19.20;90.50;;;;;;5067966;28;20196;-86
2021/09/13 08:22:12;;;;;;;9.10;6.25;;;19.40;89.00;;;;;;5063967;28;20226;-87
2021/09/13 08:24:40;;;;;;;6.32;5.72;;;19.70;86.70;;;;;;5067534;28;20633;-87
2021/09/13 08:27:07;;;;;;;7.28;5.78;;;19.80;85.30;;;;;;5053536;28;20255;-83
2021/09/13 08:29:34;;;;;;;6.57;5.90;;;20.20;84.70;;;;;;5083027;28;20189;-88
2021/09/13 08:32:02;;;;;;;7.97;6.07;;;20.50;79.00;;;;;;5057311;28;20261;-87
2021/09/13 08:34:30;;;;;;;6.07;5.53;;;20.60;80.10;;;;;;5046538;28;20685;-88
2021/09/13 08:36:57;;;;;;;7.53;5.82;;;20.90;77.50;;;;;;5066672;28;20213;-85
2021/09/13 08:39:25;;;;;;;7.05;6.00;;;20.90;77.20;;;;;;5067252;28;20248;-81
2021/09/13 08:41:54;;;;;;;6.50;5.90;;;21.00;74.60;;;;;;5067489;28;20227;-85
2021/09/13 08:44:23;;;;;;;5.45;4.93;;;21.00;73.00;;;;;;5071236;28;20534;-85
2021/09/13 08:46:54;;;;;;;5.35;4.85;;;21.20;71.30;;;;;;5077684;28;20567;-86
2021/09/13 08:49:28;;;;;;;6.95;5.05;;;21.50;68.50;;;;;;5079213;28;20185;-86
2021/09/13 08:51:59;;;;;;;5.72;5.05;;;21.60;68.40;;;;;;5076468;28;20310;-86
2021/09/13 08:54:31;;;;;;;5.82;5.22;;;22.10;65.30;;;;;;5077710;28;20284;-87
2021/09/13 08:57:02;;;;;;;5.43;4.72;;;22.30;59.20;;;;;;5086958;28;20237;-86
2021/09/13 08:59:30;;;;;;;6.18;4.40;;;22.50;60.00;;;;;;5081449;28;20232;-83
2021/09/13 09:02:00;;;;;;;6.30;4.85;;;23.00;58.60;;;;;;5072650;28;20272;-83
2021/09/13 09:04:30;;;;;;;5.85;5.15;;;23.50;56.70;;;;;;5075487;28;20189;-83
2021/09/13 09:07:09;;;;;;;5.07;4.53;;;23.60;50.00;;;;;;5074252;28;20221;-83
2021/09/13 09:09:36;;;;;;;4.47;4.07;;;23.60;51.50;;;;;;5082039;28;20199;-83
2021/09/13 09:12:08;;;;;;;6.43;4.78;;;24.30;50.80;;;;;;5081174;28;20232;-85
2021/09/13 09:14:40;;;;;;;6.78;5.03;;;25.40;44.90;;;;;;5074708;28;20188;-84
2021/09/13 09:17:09;;;;;;;5.15;4.47;;;26.10;36.90;;;;;;5084259;28;20231;-85
2021/09/13 09:19:37;;;;;;;6.43;5.07;;;26.60;37.20;;;;;;5087406;28;20196;-84
2021/09/13 09:22:26;;;;;;;4.70;4.30;;;26.50;35.90;;;;;;5067313;28;20224;-83
2021/09/13 09:24:57;;;;;;;5.35;4.82;;;26.70;35.80;;;;;;5056566;28;20196;-83
2021/09/13 09:27:25;;;;;;;5.18;4.13;;;26.10;36.90;;;;;;5071963;28;20231;-83
2021/09/13 09:29:53;;;;;;;5.68;4.80;;;27.50;34.20;;;;;;5066574;28;20658;-83
2021/09/13 09:32:24;;;;;;;5.50;4.50;;;27.80;31.10;;;;;;5075458;28;20248;-84
2021/09/13 09:34:52;;;;;;;5.90;5.40;;;28.00;31.90;;;;;;5065822;28;20205;-84
2021/09/13 09:37:19;;;;;;;5.93;5.00;;;27.70;31.20;;;;;;5066956;28;20248;-83
2021/09/13 09:39:53;;;;;;;5.40;5.00;;;28.70;30.10;;;;;;5063468;28;20207;-84
2021/09/13 09:42:30;;;;;;;5.35;4.60;;;29.60;28.40;;;;;;5071315;28;20564;-83
2021/09/13 09:44:57;;;;;;;7.63;5.20;;;29.50;27.90;;;;;;5070593;28;20711;-84
2021/09/13 09:47:25;;;;;;;10.85;6.95;;;28.90;27.60;;;;;;5073716;28;20221;-87
2021/09/13 09:49:53;;;;;;;5.53;5.03;;;27.20;30.60;;;;;;5073434;28;20204;-85
2021/09/13 09:52:36;;;;;;;6.35;5.68;;;27.60;31.60;;;;;;5061220;28;20229;-84
2021/09/13 09:55:11;;;;;;;5.25;4.80;;;27.60;30.60;;;;;;5068872;28;20208;-84
2021/09/13 09:57:42;;;;;;;5.97;5.22;;;27.20;32.40;;;;;;5070841;28;20216;-84
2021/09/13 10:00:27;;;;;;;5.85;5.35;;;27.50;31.70;;;;;;5075751;28;20197;-83
2021/09/13 10:02:54;;;;;;;5.28;4.82;;;27.30;32.50;;;;;;5073650;28;20231;-83
2021/09/13 10:05:23;;;;;;;7.60;6.10;;;26.80;34.90;;;;;;5072401;28;20192;-84
2021/09/13 10:07:50;;;;;;;5.38;4.93;;;27.00;35.80;;;;;;5068182;28;20730;-87
2021/09/13 10:10:20;;;;;;;5.90;5.30;;;28.60;31.60;;;;;;5066344;28;20307;-88
2021/09/13 10:12:47;;;;;;;6.45;5.38;;;28.90;28.90;;;;;;5068742;28;20213;-84
2021/09/13 10:15:16;;;;;;;5.90;5.43;;;28.10;29.50;;;;;;5073138;28;20200;-85
2021/09/13 10:17:45;;;;;;;6.50;5.55;;;27.60;31.50;;;;;;5073303;28;20217;-85
2021/09/13 10:20:14;;;;;;;6.38;5.13;;;27.70;31.30;;;;;;5062275;28;20197;-84
2021/09/13 10:22:43;;;;;;;6.20;5.70;;;27.80;32.40;;;;;;5065138;28;20220;-83
2021/09/13 10:25:12;;;;;;;5.93;5.30;;;28.70;30.30;;;;;;5070057;28;20211;-86
2021/09/13 10:27:47;;;;;;;5.78;5.28;;;29.00;28.60;;;;;;5067444;28;20233;-85
2021/09/13 10:30:18;;;;;;;5.85;5.25;;;30.20;25.10;;;;;;5066666;28;20194;-86
2021/09/13 10:32:47;;;;;;;5.35;4.93;;;29.80;27.10;;;;;;5071856;28;20298;-86
2021/09/13 10:35:18;;;;;;;6.38;5.43;;;28.90;27.00;;;;;;5075062;28;20289;-85
2021/09/13 10:37:49;;;;;;;5.50;5.00;;;27.50;30.80;;;;;;5061815;28;20566;-84
2021/09/13 10:40:28;;;;;;;5.68;5.18;;;26.60;33.90;;;;;;5065868;28;20190;-84
2021/09/13 10:42:57;;;;;;;5.25;4.85;;;26.60;34.40;;;;;;5069492;28;20284;-83
2021/09/13 10:45:41;;;;;;;5.78;5.07;;;27.40;32.80;;;;;;5045225;28;20185;-83
2021/09/13 10:48:12;;;;;;;4.93;4.40;;;27.80;29.80;;;;;;5068558;28;20225;-82
2021/09/13 10:50:42;;;;;;;5.20;4.80;;;28.80;30.00;;;;;;5067672;28;20213;-83
2021/09/13 10:53:32;;;;;;;4.68;4.28;;;28.90;27.40;;;;;;5069813;28;20220;-82
2021/09/13 10:56:01;;;;;;;5.07;4.68;;;29.40;26.50;;;;;;5074812;28;20232;-83
2021/09/13 10:58:44;;;;;;;5.82;5.32;;;30.10;24.50;;;;;;5067271;28;20217;-83
2021/09/13 11:01:22;;;;;;;5.30;4.80;;;29.60;24.40;;;;;;5067824;28;20332;-83
2021/09/13 11:03:50;;;;;;;4.35;4.05;;;28.90;26.00;;;;;;5073224;28;20204;-83
2021/09/13 11:06:40;;;;;;;4.75;4.40;;;28.20;28.60;;;;;;5072546;28;20201;-84
2021/09/13 11:09:18;;;;;;;5.45;5.00;;;27.60;30.90;;;;;;5073266;28;20200;-84
2021/09/13 11:11:48;;;;;;;5.18;4.78;;;26.90;31.40;;;;;;5067041;28;20232;-83
2021/09/13 11:14:19;;;;;;;4.80;4.50;;;26.10;35.50;;;;;;5071523;28;20204;-83
2021/09/13 11:16:48;;;;;;;6.13;5.10;;;25.50;38.00;;;;;;5067321;28;20389;-81
2021/09/13 11:19:16;;;;;;;4.70;4.30;;;25.10;38.20;;;;;;5072507;28;20217;-82
2021/09/13 11:21:44;;;;;;;6.18;4.97;;;25.10;42.10;;;;;;5073641;28;20259;-82
2021/09/13 11:24:14;;;;;;;5.22;4.72;;;24.90;43.50;;;;;;5085983;28;20196;-82
2021/09/13 11:26:44;;;;;;;5.10;4.60;;;25.00;39.80;;;;;;5072510;28;20220;-82
2021/09/13 11:29:12;;;;;;;5.75;4.88;;;25.10;42.60;;;;;;5067999;28;20193;-81
2021/09/13 11:31:43;;;;;;;5.07;4.60;;;25.30;45.80;;;;;;5067083;28;20231;-81
2021/09/13 11:34:39;;;;;;;5.80;5.28;;;25.40;40.40;;;;;;5073186;28;20228;-84
2021/09/13 11:37:09;;;;;;;7.25;5.75;;;25.00;41.70;;;;;;5045910;28;20296;-90
2021/09/13 11:39:45;;;;;;;5.38;4.97;;;24.70;46.10;;;;;;5072989;28;20228;-82
2021/09/13 11:42:14;;;;;;;8.48;5.75;;;25.30;45.70;;;;;;5073915;28;20931;-85
2021/09/13 11:44:44;;;;;;;4.93;4.53;;;25.60;44.20;;;;;;5080022;28;20200;-82
2021/09/13 11:47:14;;;;;;;5.07;4.38;;;25.40;41.00;;;;;;5065183;28;20237;-83
2021/09/13 11:49:44;;;;;;;5.35;4.85;;;25.10;42.70;;;;;;5074691;28;20636;-87
2021/09/13 11:52:17;;;;;;;10.95;8.68;;;24.10;46.70;;;;;;5070385;28;20669;-86
2021/09/13 11:54:55;;;;;;;5.72;5.00;;;24.20;53.60;;;;;;5067629;28;20285;-85
2021/09/13 11:57:25;;;;;;;8.07;5.60;;;24.40;50.30;;;;;;5065763;28;20734;-85
2021/09/13 11:59:54;;;;;;;6.43;5.65;;;24.20;48.80;;;;;;5064471;28;20715;-88
2021/09/13 12:02:23;;;;;;;6.35;5.40;;;23.80;50.00;;;;;;5070858;28;20233;-87
2021/09/13 12:04:52;;;;;;;10.57;7.10;;;23.80;51.50;;;;;;5068196;28;20571;-86
2021/09/13 12:07:20;;;;;;;5.05;4.53;;;24.10;50.10;;;;;;5067767;28;20639;-86
2021/09/13 12:09:50;;;;;;;8.30;5.93;;;24.30;49.10;;;;;;5053296;28;20209;-86
2021/09/13 12:12:20;;;;;;;6.30;4.72;;;24.60;50.40;;;;;;5073188;28;20237;-86
2021/09/13 12:14:49;;;;;;;5.88;5.25;;;24.60;47.40;;;;;;5074210;28;20285;-89
2021/09/13 12:17:23;;;;;;;65.72;27.65;;;24.60;46.20;;;;;;5037284;28;20308;-86
2021/09/13 12:19:52;;;;;;;8.88;5.28;;;24.40;49.50;;;;;;5074499;28;20202;-86
2021/09/13 12:22:19;;;;;;;6.00;5.38;;;24.00;49.60;;;;;;5071009;28;20227;-90
2021/09/13 12:24:47;;;;;;;6.60;5.28;;;23.80;49.80;;;;;;5076500;28;20196;-91
2021/09/13 12:27:17;;;;;;;25.70;9.10;;;23.80;51.90;;;;;;5076824;28;20727;-88
2021/09/13 12:29:56;;;;;;;7.10;5.20;;;24.00;53.70;;;;;;5075310;28;20189;-87
2021/09/13 12:32:27;;;;;;;5.35;4.88;;;24.10;48.40;;;;;;5074719;28;20220;-86
2021/09/13 12:34:56;;;;;;;5.05;4.57;;;23.80;48.40;;;;;;5081368;28;21663;-86
2021/09/13 12:37:31;;;;;;;5.30;4.30;;;23.60;50.70;;;;;;5075538;28;20223;-88
2021/09/13 12:40:13;;;;;;;5.28;4.78;;;23.90;50.50;;;;;;5075588;28;20204;-91
2021/09/13 12:42:56;;;;;;;5.82;4.68;;;24.20;48.90;;;;;;5070870;28;20714;-86
2021/09/13 12:45:24;;;;;;;5.60;4.78;;;24.20;47.50;;;;;;5074036;28;20567;-86
2021/09/13 12:47:56;;;;;;;4.95;4.50;;;24.10;46.60;;;;;;5072504;28;20619;-89
2021/09/13 12:50:31;;;;;;;4.95;4.40;;;24.10;46.90;;;;;;5072725;28;20201;-86
2021/09/13 12:52:59;;;;;;;5.45;4.28;;;24.00;46.30;;;;;;5050747;28;20227;-87
2021/09/13 12:55:28;;;;;;;5.20;4.60;;;23.90;46.60;;;;;;5074148;28;20648;-88
2021/09/13 12:57:55;;;;;;;6.97;5.30;;;23.80;50.00;;;;;;5066052;28;20229;-86